^^
Your Local Weather - Clay, NY Station Historical Data
Daily Summary for January 12, 2018 Units:  Both    English   Metric
« Previous Day
Next Day »
Daily Weekly Monthly Yearly Custom
  High: Low: Average:
Temperature: 59.3 °F /  15.2 °C 17.6 °F /  -8 °C 45.6 °F /  7.6 °C
Dew Point: 57.9 °F /  14.4 °C 15.4 °F /  -9.2 °C 43.3 °F /  6.3 °C
Humidity: 95% 87% 92%
Wind Speed: 8.0mph /  12.9km/h - 3.5mph /  5.6km/h
Wind Gust: 14.0mph /  22.5km/h - -
Wind- - SW
Pressure: 29.88 in /  1011.7 hPa 29.52 in /  999.5 hPa -
Precipitation: 1.21 in /  30.73 mm    
Historical Graphs
 
 
Tabular Data for January 12, 2018
Time Temperature Dew Point Pressure Wind Wind Speed Wind Gust Humidity Rainfall Rate (Hourly) solar
00:02 51.6 °F /  10.9 °C 48.2 °F /  9 °C 29.88in /  1011.7hPa South 3.0mph /  4.8km/h 4.0mph /  6.4km/h 88% 0.17in /  4.32mm 0 W/m2
00:08 51.9 °F /  11.1 °C 48.8 °F /  9.3 °C 29.88in /  1011.7hPa SSE 5.0mph /  8km/h 5.0mph /  8km/h 89% 0.08in /  2.03mm 0 W/m2
00:20 52.1 °F /  11.2 °C 49.0 °F /  9.4 °C 29.88in /  1011.7hPa South 4.0mph /  6.4km/h 9.0mph /  14.5km/h 89% 0.11in /  2.79mm 0 W/m2
00:26 52.4 °F /  11.3 °C 49.3 °F /  9.6 °C 29.88in /  1011.7hPa SSW 3.0mph /  4.8km/h 9.0mph /  14.5km/h 89% 0.16in /  4.06mm 0 W/m2
00:32 52.7 °F /  11.5 °C 49.5 °F /  9.7 °C 29.88in /  1011.7hPa SSE 2.0mph /  3.2km/h 4.0mph /  6.4km/h 89% 0.08in /  2.03mm 0 W/m2
00:38 53.1 °F /  11.7 °C 49.9 °F /  9.9 °C 29.87in /  1011.4hPa South 4.0mph /  6.4km/h 6.0mph /  9.7km/h 89% 0.05in /  1.27mm 0 W/m2
00:43 53.5 °F /  11.9 °C 50.3 °F /  10.2 °C 29.86in /  1011.1hPa SSE 4.0mph /  6.4km/h 6.0mph /  9.7km/h 89% 0.05in /  1.27mm 0 W/m2
00:50 54.0 °F /  12.2 °C 50.8 °F /  10.4 °C 29.86in /  1011.1hPa South 5.0mph /  8km/h 5.0mph /  8km/h 89% 0.04in /  1.02mm 0 W/m2
00:55 54.3 °F /  12.4 °C 50.8 °F /  10.4 °C 29.85in /  1010.7hPa SE 6.0mph /  9.7km/h 7.0mph /  11.3km/h 88% 0.00in /  0mm 0 W/m2
01:02 54.3 °F /  12.4 °C 50.8 °F /  10.4 °C 29.85in /  1010.7hPa South 6.0mph /  9.7km/h 6.0mph /  9.7km/h 88% 0.00in /  0mm 0 W/m2
01:08 54.3 °F /  12.4 °C 50.8 °F /  10.4 °C 29.85in /  1010.7hPa South 4.0mph /  6.4km/h 6.0mph /  9.7km/h 88% 0.00in /  0mm 0 W/m2
01:14 54.5 °F /  12.5 °C 50.7 °F /  10.4 °C 29.85in /  1010.7hPa South 4.0mph /  6.4km/h 4.0mph /  6.4km/h 87% 0.04in /  1.02mm 0 W/m2
01:19 54.5 °F /  12.5 °C 50.7 °F /  10.4 °C 29.84in /  1010.4hPa SW 5.0mph /  8km/h 5.0mph /  8km/h 87% 0.04in /  1.02mm 0 W/m2
01:26 54.6 °F /  12.6 °C 50.8 °F /  10.4 °C 29.84in /  1010.4hPa South 4.0mph /  6.4km/h 5.0mph /  8km/h 87% 0.04in /  1.02mm 0 W/m2
01:32 54.5 °F /  12.5 °C 50.7 °F /  10.4 °C 29.84in /  1010.4hPa SW 4.0mph /  6.4km/h 4.0mph /  6.4km/h 87% 0.00in /  0mm 0 W/m2
01:44 54.5 °F /  12.5 °C 50.7 °F /  10.4 °C 29.84in /  1010.4hPa SSW 3.0mph /  4.8km/h 4.0mph /  6.4km/h 87% 0.00in /  0mm 0 W/m2
01:49 54.5 °F /  12.5 °C 51.0 °F /  10.6 °C 29.84in /  1010.4hPa South 3.0mph /  4.8km/h 3.0mph /  4.8km/h 88% 0.05in /  1.27mm 0 W/m2
02:02 54.7 °F /  12.6 °C 50.9 °F /  10.5 °C 29.83in /  1010hPa SSE 4.0mph /  6.4km/h 7.0mph /  11.3km/h 87% 0.06in /  1.52mm 0 W/m2
02:08 54.4 °F /  12.4 °C 50.6 °F /  10.3 °C 29.83in /  1010hPa SSW 4.0mph /  6.4km/h 7.0mph /  11.3km/h 87% 0.06in /  1.52mm 0 W/m2
02:19 54.7 °F /  12.6 °C 51.2 °F /  10.7 °C 29.82in /  1009.7hPa SE 4.0mph /  6.4km/h 7.0mph /  11.3km/h 88% 0.00in /  0mm 0 W/m2
02:30 54.6 °F /  12.6 °C 50.8 °F /  10.4 °C 29.82in /  1009.7hPa SSE 4.0mph /  6.4km/h 6.0mph /  9.7km/h 87% 0.15in /  3.81mm 0 W/m2
02:36 54.7 °F /  12.6 °C 51.2 °F /  10.7 °C 29.82in /  1009.7hPa SSE 4.0mph /  6.4km/h 6.0mph /  9.7km/h 88% 0.16in /  4.06mm 0 W/m2
02:43 54.8 °F /  12.7 °C 51.3 °F /  10.7 °C 29.82in /  1009.7hPa SSE 5.0mph /  8km/h 5.0mph /  8km/h 88% 0.10in /  2.54mm 0 W/m2
02:49 54.9 °F /  12.7 °C 51.4 °F /  10.8 °C 29.81in /  1009.4hPa SSE 5.0mph /  8km/h 10.0mph /  16.1km/h 88% 0.10in /  2.54mm 0 W/m2
02:56 54.9 °F /  12.7 °C 51.4 °F /  10.8 °C 29.81in /  1009.4hPa South 5.0mph /  8km/h 10.0mph /  16.1km/h 88% 0.05in /  1.27mm 0 W/m2
03:02 54.9 °F /  12.7 °C 51.4 °F /  10.8 °C 29.80in /  1009hPa South 5.0mph /  8km/h 6.0mph /  9.7km/h 88% 0.04in /  1.02mm 0 W/m2
03:08 54.7 °F /  12.6 °C 51.2 °F /  10.7 °C 29.81in /  1009.4hPa South 5.0mph /  8km/h 6.0mph /  9.7km/h 88% 0.09in /  2.29mm 0 W/m2
03:13 54.6 °F /  12.6 °C 51.4 °F /  10.8 °C 29.80in /  1009hPa South 4.0mph /  6.4km/h 5.0mph /  8km/h 89% 0.11in /  2.79mm 0 W/m2
03:20 54.9 °F /  12.7 °C 51.7 °F /  10.9 °C 29.81in /  1009.4hPa SW 5.0mph /  8km/h 8.0mph /  12.9km/h 89% 0.11in /  2.79mm 0 W/m2
03:26 54.8 °F /  12.7 °C 51.6 °F /  10.9 °C 29.80in /  1009hPa South 6.0mph /  9.7km/h 8.0mph /  12.9km/h 89% 0.10in /  2.54mm 0 W/m2
03:32 54.6 °F /  12.6 °C 51.4 °F /  10.8 °C 29.80in /  1009hPa SSE 5.0mph /  8km/h 5.0mph /  8km/h 89% 0.08in /  2.03mm 0 W/m2
03:46 54.3 °F /  12.4 °C 51.1 °F /  10.6 °C 29.77in /  1008hPa SSE 6.0mph /  9.7km/h 8.0mph /  12.9km/h 89% 0.04in /  1.02mm 0 W/m2
03:52 54.3 °F /  12.4 °C 51.4 °F /  10.8 °C 29.77in /  1008hPa South 6.0mph /  9.7km/h 6.0mph /  9.7km/h 90% 0.00in /  0mm 0 W/m2
03:58 54.7 °F /  12.6 °C 51.8 °F /  11 °C 29.77in /  1008hPa South 6.0mph /  9.7km/h 6.0mph /  9.7km/h 90% 0.00in /  0mm 0 W/m2
04:04 55.0 °F /  12.8 °C 51.8 °F /  11 °C 29.77in /  1008hPa SE 5.0mph /  8km/h 6.0mph /  9.7km/h 89% 0.00in /  0mm 0 W/m2
04:10 55.0 °F /  12.8 °C 51.8 °F /  11 °C 29.77in /  1008hPa South 5.0mph /  8km/h 5.0mph /  8km/h 89% 0.00in /  0mm 0 W/m2
04:15 55.1 °F /  12.8 °C 51.9 °F /  11.1 °C 29.77in /  1008hPa SSW 4.0mph /  6.4km/h 6.0mph /  9.7km/h 89% 0.00in /  0mm 0 W/m2
04:22 55.4 °F /  13 °C 52.2 °F /  11.2 °C 29.78in /  1008.4hPa SSW 4.0mph /  6.4km/h 5.0mph /  8km/h 89% 0.00in /  0mm 0 W/m2
04:28 55.5 °F /  13.1 °C 52.0 °F /  11.1 °C 29.77in /  1008hPa SSE 4.0mph /  6.4km/h 6.0mph /  9.7km/h 88% 0.00in /  0mm 0 W/m2
04:34 55.4 °F /  13 °C 51.9 °F /  11.1 °C 29.77in /  1008hPa SSW 4.0mph /  6.4km/h 7.0mph /  11.3km/h 88% 0.00in /  0mm 0 W/m2
04:39 55.5 °F /  13.1 °C 52.0 °F /  11.1 °C 29.76in /  1007.7hPa South 5.0mph /  8km/h 7.0mph /  11.3km/h 88% 0.00in /  0mm 0 W/m2
04:46 55.7 °F /  13.2 °C 52.2 °F /  11.2 °C 29.77in /  1008hPa SSW 6.0mph /  9.7km/h 12.0mph /  19.3km/h 88% 0.00in /  0mm 0 W/m2
04:52 55.7 °F /  13.2 °C 52.2 °F /  11.2 °C 29.77in /  1008hPa SSE 6.0mph /  9.7km/h 6.0mph /  9.7km/h 88% 0.00in /  0mm 0 W/m2
04:58 56.0 °F /  13.3 °C 52.2 °F /  11.2 °C 29.77in /  1008hPa SSE 6.0mph /  9.7km/h 6.0mph /  9.7km/h 87% 0.00in /  0mm 0 W/m2
05:03 55.9 °F /  13.3 °C 52.1 °F /  11.2 °C 29.77in /  1008hPa South 5.0mph /  8km/h 6.0mph /  9.7km/h 87% 0.00in /  0mm 0 W/m2
05:14 56.1 °F /  13.4 °C 52.3 °F /  11.3 °C 29.77in /  1008hPa South 5.0mph /  8km/h 5.0mph /  8km/h 87% 0.00in /  0mm 0 W/m2
05:20 55.8 °F /  13.2 °C 52.3 °F /  11.3 °C 29.77in /  1008hPa South 5.0mph /  8km/h 5.0mph /  8km/h 88% 0.16in /  4.06mm 0 W/m2
05:25 55.5 °F /  13.1 °C 52.0 °F /  11.1 °C 29.76in /  1007.7hPa South 3.0mph /  4.8km/h 7.0mph /  11.3km/h 88% 0.08in /  2.03mm 0 W/m2
05:32 54.9 °F /  12.7 °C 51.4 °F /  10.8 °C 29.76in /  1007.7hPa SSE 2.0mph /  3.2km/h 3.0mph /  4.8km/h 88% 0.10in /  2.54mm 0 W/m2
05:38 54.5 °F /  12.5 °C 51.3 °F /  10.7 °C 29.76in /  1007.7hPa SSE 3.0mph /  4.8km/h 6.0mph /  9.7km/h 89% 0.32in /  8.13mm 0 W/m2
05:44 54.5 °F /  12.5 °C 51.6 °F /  10.9 °C 29.76in /  1007.7hPa South 3.0mph /  4.8km/h 4.0mph /  6.4km/h 90% 0.21in /  5.33mm 0 W/m2
05:49 54.6 °F /  12.6 °C 51.7 °F /  10.9 °C 29.75in /  1007.3hPa SE 3.0mph /  4.8km/h 4.0mph /  6.4km/h 90% 0.37in /  9.4mm 0 W/m2
06:02 54.7 °F /  12.6 °C 52.1 °F /  11.2 °C 29.74in /  1007hPa South 1.0mph /  1.6km/h 2.0mph /  3.2km/h 91% 0.27in /  6.86mm 0 W/m2
06:08 54.7 °F /  12.6 °C 52.1 °F /  11.2 °C 29.75in /  1007.3hPa Calm   2.0mph /  3.2km/h 91% 0.39in /  9.91mm 0 W/m2
06:13 54.4 °F /  12.4 °C 51.8 °F /  11 °C 29.75in /  1007.3hPa Calm     91% 0.30in /  7.62mm 0 W/m2
06:19 52.1 °F /  11.2 °C 49.3 °F /  9.6 °C 29.74in /  1007hPa Calm     90% 0.47in /  11.94mm 0 W/m2
06:25 51.9 °F /  11.1 °C 49.4 °F /  9.7 °C 29.74in /  1007hPa Calm     91% 0.85in /  21.59mm 0 W/m2
06:35 52.1 °F /  11.2 °C 49.8 °F /  9.9 °C 29.73in /  1006.7hPa South 1.0mph /  1.6km/h 1.0mph /  1.6km/h 92% 0.67in /  17.02mm 0 W/m2
06:42 51.6 °F /  10.9 °C 49.1 °F /  9.5 °C 29.73in /  1006.7hPa South 1.0mph /  1.6km/h 1.0mph /  1.6km/h 91% 0.51in /  12.95mm 0 W/m2
06:48 50.9 °F /  10.5 °C 48.7 °F /  9.3 °C 29.73in /  1006.7hPa Calm   1.0mph /  1.6km/h 92% 0.78in /  19.81mm 0 W/m2
06:54 50.8 °F /  10.4 °C 48.6 °F /  9.2 °C 29.72in /  1006.3hPa Calm   2.0mph /  3.2km/h 92% 0.38in /  9.65mm 0 W/m2
06:59 50.9 °F /  10.5 °C 48.7 °F /  9.3 °C 29.71in /  1006hPa South 1.0mph /  1.6km/h 1.0mph /  1.6km/h 92% 0.31in /  7.87mm 0 W/m2
07:13 52.2 °F /  11.2 °C 50.2 °F /  10.1 °C 29.71in /  1006hPa Calm     93% 0.27in /  6.86mm 0 W/m2
07:20 51.6 °F /  10.9 °C 49.6 °F /  9.8 °C 29.70in /  1005.6hPa Calm     93% 0.27in /  6.86mm 0 W/m2
07:26 51.5 °F /  10.8 °C 49.5 °F /  9.7 °C 29.70in /  1005.6hPa Calm     93% 0.13in /  3.3mm 0 W/m2
07:32 51.5 °F /  10.8 °C 49.5 °F /  9.7 °C 29.70in /  1005.6hPa Calm     93% 0.11in /  2.79mm 0 W/m2
07:38 50.6 °F /  10.3 °C 48.7 °F /  9.3 °C 29.70in /  1005.6hPa Calm   1.0mph /  1.6km/h 93% 0.08in /  2.03mm 0 W/m2
07:43 50.8 °F /  10.4 °C 48.8 °F /  9.3 °C 29.70in /  1005.6hPa Calm     93% 0.06in /  1.52mm 0 W/m2
07:54 50.5 °F /  10.3 °C 48.6 °F /  9.2 °C 29.69in /  1005.3hPa Calm   2.0mph /  3.2km/h 93% 0.06in /  1.52mm 0 W/m2
08:00 51.2 °F /  10.7 °C 49.2 °F /  9.6 °C 29.69in /  1005.3hPa South 1.0mph /  1.6km/h 1.0mph /  1.6km/h 93% 0.05in /  1.27mm 0 W/m2
08:06 51.1 °F /  10.6 °C 49.1 °F /  9.5 °C 29.69in /  1005.3hPa South 1.0mph /  1.6km/h 1.0mph /  1.6km/h 93% 0.06in /  1.52mm 7 W/m2
08:12 51.8 °F /  11 °C 49.8 °F /  9.9 °C 29.69in /  1005.3hPa Calm   1.0mph /  1.6km/h 93% 0.11in /  2.79mm 9 W/m2
08:18 51.7 °F /  10.9 °C 49.7 °F /  9.8 °C 29.69in /  1005.3hPa Calm   1.0mph /  1.6km/h 93% 0.08in /  2.03mm 11 W/m2
08:24 51.7 °F /  10.9 °C 49.7 °F /  9.8 °C 29.69in /  1005.3hPa Calm   1.0mph /  1.6km/h 93% 0.07in /  1.78mm 14 W/m2
08:30 52.0 °F /  11.1 °C 50.3 °F /  10.2 °C 29.69in /  1005.3hPa South 1.0mph /  1.6km/h 2.0mph /  3.2km/h 94% 0.08in /  2.03mm 21 W/m2
08:35 52.0 °F /  11.1 °C 50.3 °F /  10.2 °C 29.69in /  1005.3hPa South 2.0mph /  3.2km/h 2.0mph /  3.2km/h 94% 0.13in /  3.3mm 18 W/m2
08:42 51.9 °F /  11.1 °C 49.9 °F /  9.9 °C 29.69in /  1005.3hPa South 2.0mph /  3.2km/h 2.0mph /  3.2km/h 93% 0.05in /  1.27mm 23 W/m2
08:48 51.9 °F /  11.1 °C 50.2 °F /  10.1 °C 29.69in /  1005.3hPa South 2.0mph /  3.2km/h 3.0mph /  4.8km/h 94% 0.00in /  0mm 21 W/m2
08:54 52.0 °F /  11.1 °C 50.3 °F /  10.2 °C 29.69in /  1005.3hPa South 2.0mph /  3.2km/h 3.0mph /  4.8km/h 94% 0.00in /  0mm 19 W/m2
08:59 51.9 °F /  11.1 °C 50.2 °F /  10.1 °C 29.68in /  1005hPa South 1.0mph /  1.6km/h 1.0mph /  1.6km/h 94% 0.09in /  2.29mm 19 W/m2
09:05 51.9 °F /  11.1 °C 50.2 °F /  10.1 °C 29.68in /  1005hPa South 1.0mph /  1.6km/h 3.0mph /  4.8km/h 94% 0.07in /  1.78mm 23 W/m2
09:12 52.1 °F /  11.2 °C 50.4 °F /  10.2 °C 29.68in /  1005hPa South 2.0mph /  3.2km/h 2.0mph /  3.2km/h 94% 0.07in /  1.78mm 28 W/m2
09:18 52.0 °F /  11.1 °C 50.3 °F /  10.2 °C 29.68in /  1005hPa East 2.0mph /  3.2km/h 4.0mph /  6.4km/h 94% 0.07in /  1.78mm 35 W/m2
09:24 51.8 °F /  11 °C 50.1 °F /  10.1 °C 29.67in /  1004.6hPa East 2.0mph /  3.2km/h 2.0mph /  3.2km/h 94% 0.05in /  1.27mm 46 W/m2
09:29 52.1 °F /  11.2 °C 50.4 °F /  10.2 °C 29.67in /  1004.6hPa SSE 2.0mph /  3.2km/h 3.0mph /  4.8km/h 94% 0.05in /  1.27mm 47 W/m2
09:35 52.0 °F /  11.1 °C 50.3 °F /  10.2 °C 29.67in /  1004.6hPa SSE 1.0mph /  1.6km/h 3.0mph /  4.8km/h 94% 0.05in /  1.27mm 37 W/m2
09:42 52.0 °F /  11.1 °C 50.3 °F /  10.2 °C 29.67in /  1004.6hPa Calm   2.0mph /  3.2km/h 94% 0.00in /  0mm 28 W/m2
09:48 51.9 °F /  11.1 °C 50.2 °F /  10.1 °C 29.66in /  1004.3hPa SE 1.0mph /  1.6km/h 2.0mph /  3.2km/h 94% 0.00in /  0mm 26 W/m2
09:53 51.8 °F /  11 °C 50.1 °F /  10.1 °C 29.66in /  1004.3hPa SE 1.0mph /  1.6km/h 1.0mph /  1.6km/h 94% 0.00in /  0mm 32 W/m2
09:59 51.9 °F /  11.1 °C 50.2 °F /  10.1 °C 29.66in /  1004.3hPa SE 1.0mph /  1.6km/h 1.0mph /  1.6km/h 94% 0.00in /  0mm 28 W/m2
10:10 51.2 °F /  10.7 °C 49.5 °F /  9.7 °C 29.65in /  1003.9hPa SE 1.0mph /  1.6km/h 2.0mph /  3.2km/h 94% 0.00in /  0mm 40 W/m2
10:15 51.4 °F /  10.8 °C 49.7 °F /  9.8 °C 29.65in /  1003.9hPa SE 1.0mph /  1.6km/h 2.0mph /  3.2km/h 94% 0.00in /  0mm 46 W/m2
10:22 51.8 °F /  11 °C 50.1 °F /  10.1 °C 29.64in /  1003.6hPa ENE 2.0mph /  3.2km/h 2.0mph /  3.2km/h 94% 0.00in /  0mm 53 W/m2
10:28 51.8 °F /  11 °C 50.1 °F /  10.1 °C 29.63in /  1003.3hPa East 2.0mph /  3.2km/h 2.0mph /  3.2km/h 94% 0.00in /  0mm 74 W/m2
10:34 52.1 °F /  11.2 °C 50.4 °F /  10.2 °C 29.63in /  1003.3hPa ENE 2.0mph /  3.2km/h 3.0mph /  4.8km/h 94% 0.00in /  0mm 79 W/m2
10:40 51.8 °F /  11 °C 50.1 °F /  10.1 °C 29.63in /  1003.3hPa ENE 2.0mph /  3.2km/h 2.0mph /  3.2km/h 94% 0.00in /  0mm 90 W/m2
10:45 52.3 °F /  11.3 °C 50.6 °F /  10.3 °C 29.63in /  1003.3hPa ENE 2.0mph /  3.2km/h 2.0mph /  3.2km/h 94% 0.00in /  0mm 95 W/m2
10:52 52.3 °F /  11.3 °C 50.6 °F /  10.3 °C 29.63in /  1003.3hPa ENE 2.0mph /  3.2km/h 2.0mph /  3.2km/h 94% 0.00in /  0mm 81 W/m2
10:58 52.6 °F /  11.4 °C 50.9 °F /  10.5 °C 29.63in /  1003.3hPa SSE 2.0mph /  3.2km/h 3.0mph /  4.8km/h 94% 0.00in /  0mm 102 W/m2
11:04 52.7 °F /  11.5 °C 51.0 °F /  10.6 °C 29.62in /  1002.9hPa East 2.0mph /  3.2km/h 3.0mph /  4.8km/h 94% 0.00in /  0mm 90 W/m2
11:10 52.6 °F /  11.4 °C 50.9 °F /  10.5 °C 29.61in /  1002.6hPa East 2.0mph /  3.2km/h 2.0mph /  3.2km/h 94% 0.00in /  0mm 105 W/m2
11:15 52.1 °F /  11.2 °C 50.4 °F /  10.2 °C 29.60in /  1002.3hPa ENE 2.0mph /  3.2km/h 4.0mph /  6.4km/h 94% 0.00in /  0mm 113 W/m2
11:22 52.4 °F /  11.3 °C 51.0 °F /  10.6 °C 29.59in /  1001.9hPa ESE 2.0mph /  3.2km/h 2.0mph /  3.2km/h 95% 0.00in /  0mm 77 W/m2
11:28 52.6 °F /  11.4 °C 50.9 °F /  10.5 °C 29.59in /  1001.9hPa NE 2.0mph /  3.2km/h 4.0mph /  6.4km/h 94% 0.00in /  0mm 90 W/m2
11:33 53.1 °F /  11.7 °C 51.7 °F /  10.9 °C 29.59in /  1001.9hPa NE 1.0mph /  1.6km/h 2.0mph /  3.2km/h 95% 0.00in /  0mm 118 W/m2
11:39 52.6 °F /  11.4 °C 51.2 °F /  10.7 °C 29.59in /  1001.9hPa Calm     95% 0.00in /  0mm 74 W/m2
11:46 52.6 °F /  11.4 °C 50.9 °F /  10.5 °C 29.59in /  1001.9hPa Calm   1.0mph /  1.6km/h 94% 0.00in /  0mm 69 W/m2
11:52 51.8 °F /  11 °C 50.4 °F /  10.2 °C 29.58in /  1001.6hPa Calm     95% 0.00in /  0mm 77 W/m2
11:58 51.3 °F /  10.7 °C 49.6 °F /  9.8 °C 29.58in /  1001.6hPa Calm   1.0mph /  1.6km/h 94% 0.00in /  0mm 74 W/m2
12:03 51.3 °F /  10.7 °C 49.6 °F /  9.8 °C 29.57in /  1001.2hPa Calm     94% 0.00in /  0mm 65 W/m2
12:09 50.6 °F /  10.3 °C 48.9 °F /  9.4 °C 29.56in /  1000.9hPa Calm   1.0mph /  1.6km/h 94% 0.00in /  0mm 58 W/m2
12:16 50.4 °F /  10.2 °C 48.7 °F /  9.3 °C 29.56in /  1000.9hPa Calm   1.0mph /  1.6km/h 94% 0.00in /  0mm 49 W/m2
12:22 50.7 °F /  10.4 °C 49.0 °F /  9.4 °C 29.56in /  1000.9hPa Calm     94% 0.00in /  0mm 26 W/m2
12:33 51.6 °F /  10.9 °C 49.9 °F /  9.9 °C 29.56in /  1000.9hPa Calm   1.0mph /  1.6km/h 94% 0.12in /  3.05mm 30 W/m2
12:39 51.7 °F /  10.9 °C 50.3 °F /  10.2 °C 29.56in /  1000.9hPa Calm     95% 0.06in /  1.52mm 56 W/m2
12:46 51.9 °F /  11.1 °C 50.5 °F /  10.3 °C 29.56in /  1000.9hPa Calm     95% 0.05in /  1.27mm 46 W/m2
12:52 51.5 °F /  10.8 °C 49.8 °F /  9.9 °C 29.55in /  1000.6hPa NE 1.0mph /  1.6km/h 2.0mph /  3.2km/h 94% 0.05in /  1.27mm 30 W/m2
12:59 50.9 °F /  10.5 °C 49.2 °F /  9.6 °C 29.55in /  1000.6hPa NE 1.0mph /  1.6km/h 1.0mph /  1.6km/h 94% 0.00in /  0mm 37 W/m2
13:12 50.5 °F /  10.3 °C 48.8 °F /  9.3 °C 29.54in /  1000.2hPa NE 1.0mph /  1.6km/h 1.0mph /  1.6km/h 94% 0.09in /  2.29mm 58 W/m2
13:23 54.9 °F /  12.7 °C 53.5 °F /  11.9 °C 29.54in /  1000.2hPa South 1.0mph /  1.6km/h 2.0mph /  3.2km/h 95% 0.00in /  0mm 51 W/m2
13:30 56.6 °F /  13.7 °C 55.2 °F /  12.9 °C 29.53in /  999.9hPa South 2.0mph /  3.2km/h 2.0mph /  3.2km/h 95% 0.00in /  0mm 44 W/m2
13:35 57.0 °F /  13.9 °C 55.6 °F /  13.1 °C 29.53in /  999.9hPa South 2.0mph /  3.2km/h 4.0mph /  6.4km/h 95% 0.00in /  0mm 37 W/m2
13:48 57.9 °F /  14.4 °C 56.5 °F /  13.6 °C 29.52in /  999.5hPa South 1.0mph /  1.6km/h 2.0mph /  3.2km/h 95% 0.00in /  0mm 60 W/m2
14:02 58.4 °F /  14.7 °C 57.0 °F /  13.9 °C 29.53in /  999.9hPa South 2.0mph /  3.2km/h 6.0mph /  9.7km/h 95% 0.05in /  1.27mm 46 W/m2
14:08 58.6 °F /  14.8 °C 57.2 °F /  14 °C 29.53in /  999.9hPa South 3.0mph /  4.8km/h 6.0mph /  9.7km/h 95% 0.04in /  1.02mm 30 W/m2
14:13 58.7 °F /  14.8 °C 57.3 °F /  14.1 °C 29.52in /  999.5hPa SSW 3.0mph /  4.8km/h 4.0mph /  6.4km/h 95% 0.00in /  0mm 28 W/m2
14:28 59.0 °F /  15 °C 57.6 °F /  14.2 °C 29.52in /  999.5hPa SSE 3.0mph /  4.8km/h 6.0mph /  9.7km/h 95% 0.00in /  0mm 74 W/m2
14:33 59.1 °F /  15.1 °C 57.7 °F /  14.3 °C 29.52in /  999.5hPa SSE 4.0mph /  6.4km/h 4.0mph /  6.4km/h 95% 0.00in /  0mm 81 W/m2
14:39 59.2 °F /  15.1 °C 57.8 °F /  14.3 °C 29.52in /  999.5hPa WSW 4.0mph /  6.4km/h 7.0mph /  11.3km/h 95% 0.00in /  0mm 97 W/m2
14:46 59.3 °F /  15.2 °C 57.9 °F /  14.4 °C 29.52in /  999.5hPa SSE 5.0mph /  8km/h 7.0mph /  11.3km/h 95% 0.00in /  0mm 114 W/m2
14:52 59.3 °F /  15.2 °C 57.6 °F /  14.2 °C 29.52in /  999.5hPa SSE 4.0mph /  6.4km/h 5.0mph /  8km/h 94% 0.00in /  0mm 88 W/m2
14:59 59.2 °F /  15.1 °C 57.5 °F /  14.2 °C 29.52in /  999.5hPa SSE 3.0mph /  4.8km/h 3.0mph /  4.8km/h 94% 0.00in /  0mm 70 W/m2
15:05 58.9 °F /  14.9 °C 56.9 °F /  13.8 °C 29.53in /  999.9hPa WNW 4.0mph /  6.4km/h 5.0mph /  8km/h 93% 0.00in /  0mm 14 W/m2
15:12 54.3 °F /  12.4 °C 50.8 °F /  10.4 °C 29.56in /  1000.9hPa WNW 5.0mph /  8km/h 5.0mph /  8km/h 88% 0.00in /  0mm 19 W/m2
15:28 45.3 °F /  7.4 °C 42.2 °F /  5.7 °C 29.57in /  1001.2hPa WNW 6.0mph /  9.7km/h 7.0mph /  11.3km/h 89% 0.00in /  0mm 23 W/m2
15:33 44.2 °F /  6.8 °C 41.5 °F /  5.3 °C 29.57in /  1001.2hPa NW 5.0mph /  8km/h 6.0mph /  9.7km/h 90% 0.00in /  0mm 35 W/m2
15:39 43.5 °F /  6.4 °C 41.0 °F /  5 °C 29.58in /  1001.6hPa NW 4.0mph /  6.4km/h 5.0mph /  8km/h 91% 0.00in /  0mm 14 W/m2
15:50 42.7 °F /  5.9 °C 40.5 °F /  4.7 °C 29.59in /  1001.9hPa WNW 5.0mph /  8km/h 5.0mph /  8km/h 92% 0.00in /  0mm 9 W/m2
15:55 42.3 °F /  5.7 °C 40.1 °F /  4.5 °C 29.60in /  1002.3hPa WNW 5.0mph /  8km/h 9.0mph /  14.5km/h 92% 0.00in /  0mm 5 W/m2
16:02 42.0 °F /  5.6 °C 39.8 °F /  4.3 °C 29.61in /  1002.6hPa WNW 4.0mph /  6.4km/h 5.0mph /  8km/h 92% 0.00in /  0mm 0 W/m2
16:12 41.4 °F /  5.2 °C 39.5 °F /  4.2 °C 29.63in /  1003.3hPa WNW 5.0mph /  8km/h 7.0mph /  11.3km/h 93% 0.00in /  0mm 0 W/m2
16:24 40.6 °F /  4.8 °C 38.7 °F /  3.7 °C 29.64in /  1003.6hPa West 5.0mph /  8km/h 5.0mph /  8km/h 93% 0.00in /  0mm 0 W/m2
16:29 40.3 °F /  4.6 °C 38.4 °F /  3.6 °C 29.64in /  1003.6hPa NW 6.0mph /  9.7km/h 6.0mph /  9.7km/h 93% 0.00in /  0mm 0 W/m2
16:36 40.0 °F /  4.4 °C 38.1 °F /  3.4 °C 29.65in /  1003.9hPa NW 5.0mph /  8km/h 7.0mph /  11.3km/h 93% 0.00in /  0mm 0 W/m2
16:42 39.8 °F /  4.3 °C 37.9 °F /  3.3 °C 29.66in /  1004.3hPa WSW 5.0mph /  8km/h 6.0mph /  9.7km/h 93% 0.00in /  0mm 0 W/m2
16:48 39.6 °F /  4.2 °C 37.7 °F /  3.2 °C 29.66in /  1004.3hPa WNW 5.0mph /  8km/h 6.0mph /  9.7km/h 93% 0.00in /  0mm 0 W/m2
16:53 39.4 °F /  4.1 °C 37.5 °F /  3.1 °C 29.67in /  1004.6hPa NW 4.0mph /  6.4km/h 5.0mph /  8km/h 93% 0.00in /  0mm 0 W/m2
17:00 39.3 °F /  4.1 °C 37.4 °F /  3 °C 29.68in /  1005hPa West 5.0mph /  8km/h 5.0mph /  8km/h 93% 0.00in /  0mm 0 W/m2
17:06 39.1 °F /  3.9 °C 37.2 °F /  2.9 °C 29.68in /  1005hPa West 5.0mph /  8km/h 7.0mph /  11.3km/h 93% 0.00in /  0mm 0 W/m2
17:12 39.0 °F /  3.9 °C 37.1 °F /  2.8 °C 29.69in /  1005.3hPa WNW 5.0mph /  8km/h 5.0mph /  8km/h 93% 0.00in /  0mm 0 W/m2
17:18 38.9 °F /  3.8 °C 37.0 °F /  2.8 °C 29.70in /  1005.6hPa NW 5.0mph /  8km/h 6.0mph /  9.7km/h 93% 0.00in /  0mm 0 W/m2
17:24 38.6 °F /  3.7 °C 36.8 °F /  2.7 °C 29.70in /  1005.6hPa NW 5.0mph /  8km/h 9.0mph /  14.5km/h 93% 0.00in /  0mm 0 W/m2
17:30 38.4 °F /  3.6 °C 36.6 °F /  2.6 °C 29.71in /  1006hPa West 5.0mph /  8km/h 6.0mph /  9.7km/h 93% 0.00in /  0mm 0 W/m2
17:35 38.0 °F /  3.3 °C 36.2 °F /  2.3 °C 29.72in /  1006.3hPa NW 5.0mph /  8km/h 6.0mph /  9.7km/h 93% 0.00in /  0mm 0 W/m2
17:42 37.8 °F /  3.2 °C 36.0 °F /  2.2 °C 29.72in /  1006.3hPa NW 4.0mph /  6.4km/h 4.0mph /  6.4km/h 93% 0.00in /  0mm 0 W/m2
17:48 37.5 °F /  3.1 °C 35.4 °F /  1.9 °C 29.71in /  1006hPa NW 4.0mph /  6.4km/h 7.0mph /  11.3km/h 92% 0.00in /  0mm 0 W/m2
17:56 37.2 °F /  2.9 °C 35.4 °F /  1.9 °C 29.72in /  1006.3hPa WNW 4.0mph /  6.4km/h 4.0mph /  6.4km/h 93% 0.00in /  0mm 0 W/m2
18:02 36.9 °F /  2.7 °C 35.1 °F /  1.7 °C 29.73in /  1006.7hPa NW 2.0mph /  3.2km/h 5.0mph /  8km/h 93% 0.00in /  0mm 0 W/m2
18:09 36.5 °F /  2.5 °C 34.7 °F /  1.5 °C 29.74in /  1007hPa WNW 4.0mph /  6.4km/h 4.0mph /  6.4km/h 93% 0.00in /  0mm 0 W/m2
18:16 36.2 °F /  2.3 °C 34.1 °F /  1.2 °C 29.74in /  1007hPa WNW 4.0mph /  6.4km/h 4.0mph /  6.4km/h 92% 0.00in /  0mm 0 W/m2
18:22 35.8 °F /  2.1 °C 33.7 °F /  0.9 °C 29.75in /  1007.3hPa NW 5.0mph /  8km/h 11.0mph /  17.7km/h 92% 0.00in /  0mm 0 W/m2
18:28 35.4 °F /  1.9 °C 33.3 °F /  0.7 °C 29.75in /  1007.3hPa NW 5.0mph /  8km/h 5.0mph /  8km/h 92% 0.00in /  0mm 0 W/m2
18:36 35.2 °F /  1.8 °C 33.1 °F /  0.6 °C 29.75in /  1007.3hPa NNW 4.0mph /  6.4km/h 4.0mph /  6.4km/h 92% 0.00in /  0mm 0 W/m2
18:52 34.5 °F /  1.4 °C 32.4 °F /  0.2 °C 29.74in /  1007hPa NW 4.0mph /  6.4km/h 5.0mph /  8km/h 92% 0.00in /  0mm 0 W/m2
18:58 34.1 °F /  1.2 °C 32.0 °F /  0 °C 29.76in /  1007.7hPa NW 5.0mph /  8km/h 9.0mph /  14.5km/h 92% 0.00in /  0mm 0 W/m2
19:04 33.9 °F /  1.1 °C 31.8 °F /  -0.1 °C 29.76in /  1007.7hPa NNW 5.0mph /  8km/h 6.0mph /  9.7km/h 92% 0.00in /  0mm 0 W/m2
19:09 33.7 °F /  0.9 °C 31.6 °F /  -0.2 °C 29.76in /  1007.7hPa NW 4.0mph /  6.4km/h 4.0mph /  6.4km/h 92% 0.00in /  0mm 0 W/m2
19:16 33.5 °F /  0.8 °C 31.4 °F /  -0.3 °C 29.76in /  1007.7hPa NW 3.0mph /  4.8km/h 4.0mph /  6.4km/h 92% 0.00in /  0mm 0 W/m2
19:22 33.2 °F /  0.7 °C 31.1 °F /  -0.5 °C 29.76in /  1007.7hPa NNW 3.0mph /  4.8km/h 7.0mph /  11.3km/h 92% 0.00in /  0mm 0 W/m2
19:28 32.8 °F /  0.4 °C 30.7 °F /  -0.7 °C 29.76in /  1007.7hPa NNE 4.0mph /  6.4km/h 7.0mph /  11.3km/h 92% 0.00in /  0mm 0 W/m2
19:43 32.1 °F /  0.1 °C 30.0 °F /  -1.1 °C 29.77in /  1008hPa NW 5.0mph /  8km/h 8.0mph /  12.9km/h 92% 0.00in /  0mm 0 W/m2
19:52 31.6 °F /  -0.2 °C 29.5 °F /  -1.4 °C 29.77in /  1008hPa NNW 5.0mph /  8km/h 8.0mph /  12.9km/h 92% 0.00in /  0mm 0 W/m2
19:58 31.4 °F /  -0.3 °C 29.3 °F /  -1.5 °C 29.78in /  1008.4hPa NNW 5.0mph /  8km/h 8.0mph /  12.9km/h 92% 0.00in /  0mm 0 W/m2
20:05 30.7 °F /  -0.7 °C 28.7 °F /  -1.8 °C 29.79in /  1008.7hPa NW 5.0mph /  8km/h 14.0mph /  22.5km/h 92% 0.00in /  0mm 0 W/m2
20:12 30.5 °F /  -0.8 °C 28.5 °F /  -1.9 °C 29.79in /  1008.7hPa NW 5.0mph /  8km/h 8.0mph /  12.9km/h 92% 0.00in /  0mm 0 W/m2
20:18 30.3 °F /  -0.9 °C 28.3 °F /  -2.1 °C 29.79in /  1008.7hPa NW 5.0mph /  8km/h 9.0mph /  14.5km/h 92% 0.00in /  0mm 0 W/m2
20:24 29.6 °F /  -1.3 °C 27.6 °F /  -2.4 °C 29.79in /  1008.7hPa NNW 6.0mph /  9.7km/h 8.0mph /  12.9km/h 92% 0.00in /  0mm 0 W/m2
20:29 29.0 °F /  -1.7 °C 27.0 °F /  -2.8 °C 29.81in /  1009.4hPa North 7.0mph /  11.3km/h 8.0mph /  12.9km/h 92% 0.00in /  0mm 0 W/m2
20:36 28.7 °F /  -1.8 °C 26.7 °F /  -2.9 °C 29.80in /  1009hPa NNW 6.0mph /  9.7km/h 8.0mph /  12.9km/h 92% 0.00in /  0mm 0 W/m2
20:42 28.4 °F /  -2 °C 26.4 °F /  -3.1 °C 29.81in /  1009.4hPa NNW 7.0mph /  11.3km/h 7.0mph /  11.3km/h 92% 0.00in /  0mm 0 W/m2
20:48 28.1 °F /  -2.2 °C 26.1 °F /  -3.3 °C 29.80in /  1009hPa NW 6.0mph /  9.7km/h 7.0mph /  11.3km/h 92% 0.00in /  0mm 0 W/m2
20:53 27.8 °F /  -2.3 °C 25.8 °F /  -3.4 °C 29.80in /  1009hPa NW 5.0mph /  8km/h 7.0mph /  11.3km/h 92% 0.00in /  0mm 0 W/m2
21:00 27.3 °F /  -2.6 °C 25.3 °F /  -3.7 °C 29.81in /  1009.4hPa NNW 6.0mph /  9.7km/h 10.0mph /  16.1km/h 92% 0.00in /  0mm 0 W/m2
21:06 26.9 °F /  -2.8 °C 24.9 °F /  -3.9 °C 29.81in /  1009.4hPa NW 6.0mph /  9.7km/h 10.0mph /  16.1km/h 92% 0.00in /  0mm 0 W/m2
21:24 24.5 °F /  -4.2 °C 22.2 °F /  -5.4 °C 29.82in /  1009.7hPa WNW 7.0mph /  11.3km/h 9.0mph /  14.5km/h 91% 0.00in /  0mm 0 W/m2
21:30 23.9 °F /  -4.5 °C 21.7 °F /  -5.7 °C 29.81in /  1009.4hPa NNW 8.0mph /  12.9km/h 8.0mph /  12.9km/h 91% 0.00in /  0mm 0 W/m2
21:39 23.3 °F /  -4.8 °C 21.1 °F /  -6.1 °C 29.82in /  1009.7hPa North 8.0mph /  12.9km/h 9.0mph /  14.5km/h 91% 0.00in /  0mm 0 W/m2
21:45 22.9 °F /  -5.1 °C 20.7 °F /  -6.3 °C 29.82in /  1009.7hPa NNW 7.0mph /  11.3km/h 12.0mph /  19.3km/h 91% 0.00in /  0mm 0 W/m2
21:52 22.4 °F /  -5.3 °C 20.2 °F /  -6.6 °C 29.82in /  1009.7hPa NNW 7.0mph /  11.3km/h 11.0mph /  17.7km/h 91% 0.00in /  0mm 0 W/m2
21:58 22.2 °F /  -5.4 °C 20.0 °F /  -6.7 °C 29.83in /  1010hPa NNW 6.0mph /  9.7km/h 11.0mph /  17.7km/h 91% 0.00in /  0mm 0 W/m2
22:03 22.0 °F /  -5.6 °C 19.8 °F /  -6.8 °C 29.82in /  1009.7hPa NW 6.0mph /  9.7km/h 10.0mph /  16.1km/h 91% 0.00in /  0mm 0 W/m2
22:09 21.6 °F /  -5.8 °C 19.4 °F /  -7 °C 29.81in /  1009.4hPa NW 6.0mph /  9.7km/h 6.0mph /  9.7km/h 91% 0.00in /  0mm 0 W/m2
22:16 21.3 °F /  -5.9 °C 19.1 °F /  -7.2 °C 29.80in /  1009hPa NW 6.0mph /  9.7km/h 9.0mph /  14.5km/h 91% 0.00in /  0mm 0 W/m2
22:28 20.9 °F /  -6.2 °C 18.7 °F /  -7.4 °C 29.79in /  1008.7hPa NNE 6.0mph /  9.7km/h 10.0mph /  16.1km/h 91% 0.00in /  0mm 0 W/m2
22:34 20.6 °F /  -6.3 °C 18.4 °F /  -7.6 °C 29.78in /  1008.4hPa WNW 6.0mph /  9.7km/h 10.0mph /  16.1km/h 91% 0.00in /  0mm 0 W/m2
22:40 20.3 °F /  -6.5 °C 18.1 °F /  -7.7 °C 29.78in /  1008.4hPa NW 7.0mph /  11.3km/h 7.0mph /  11.3km/h 91% 0.00in /  0mm 0 W/m2
22:45 20.3 °F /  -6.5 °C 18.1 °F /  -7.7 °C 29.79in /  1008.7hPa NNW 6.0mph /  9.7km/h 7.0mph /  11.3km/h 91% 0.00in /  0mm 0 W/m2
22:52 20.2 °F /  -6.6 °C 18.0 °F /  -7.8 °C 29.79in /  1008.7hPa NW 4.0mph /  6.4km/h 5.0mph /  8km/h 91% 0.00in /  0mm 0 W/m2
22:58 20.1 °F /  -6.6 °C 17.9 °F /  -7.8 °C 29.80in /  1009hPa NW 4.0mph /  6.4km/h 5.0mph /  8km/h 91% 0.00in /  0mm 0 W/m2
23:04 19.9 °F /  -6.7 °C 17.7 °F /  -7.9 °C 29.81in /  1009.4hPa WSW 5.0mph /  8km/h 9.0mph /  14.5km/h 91% 0.00in /  0mm 0 W/m2
23:10 19.4 °F /  -7 °C 17.2 °F /  -8.2 °C 29.80in /  1009hPa NNW 5.0mph /  8km/h 5.0mph /  8km/h 91% 0.00in /  0mm 0 W/m2
23:15 19.1 °F /  -7.2 °C 16.9 °F /  -8.4 °C 29.80in /  1009hPa NNW 5.0mph /  8km/h 6.0mph /  9.7km/h 91% 0.00in /  0mm 0 W/m2
23:22 18.9 °F /  -7.3 °C 16.7 °F /  -8.5 °C 29.80in /  1009hPa NW 6.0mph /  9.7km/h 6.0mph /  9.7km/h 91% 0.00in /  0mm 0 W/m2
23:34 18.6 °F /  -7.4 °C 16.4 °F /  -8.7 °C 29.81in /  1009.4hPa NNW 6.0mph /  9.7km/h 8.0mph /  12.9km/h 91% 0.00in /  0mm 0 W/m2
23:39 18.4 °F /  -7.6 °C 16.2 °F /  -8.8 °C 29.81in /  1009.4hPa NNW 6.0mph /  9.7km/h 9.0mph /  14.5km/h 91% 0.00in /  0mm 0 W/m2
23:52 17.8 °F /  -7.9 °C 15.6 °F /  -9.1 °C 29.80in /  1009hPa NW 5.0mph /  8km/h 6.0mph /  9.7km/h 91% 0.00in /  0mm 0 W/m2
23:58 17.6 °F /  -8 °C 15.4 °F /  -9.2 °C 29.79in /  1008.7hPa North 6.0mph /  9.7km/h 9.0mph /  14.5km/h 91% 0.00in /  0mm 0 W/m2
Country Meadow, Clay, NY, USA
Compliments of Weather Underground - 2 mb